sensor_id;sensor_type;location;lat;lon;timestamp;pressure;altitude;pressure_sealevel;temperature;humidity
54600;BME280;40500;51.084;16.958;2023-04-01T00:01:45;98508.73;;;8.00;100.00
54600;BME280;40500;51.084;16.958;2023-04-01T00:04:15;98506.04;;;8.02;100.00
54600;BME280;40500;51.084;16.958;2023-04-01T00:06:45;98507.55;;;8.04;100.00
54600;BME280;40500;51.084;16.958;2023-04-01T00:09:18;98505.92;;;8.06;100.00
54600;BME280;40500;51.084;16.958;2023-04-01T00:11:48;98505.17;;;8.07;100.00
54600;BME280;40500;51.084;16.958;2023-04-01T00:14:18;98509.45;;;8.09;100.00
54600;BME280;40500;51.084;16.958;2023-04-01T00:16:49;98505.90;;;8.10;100.00
54600;BME280;40500;51.084;16.958;2023-04-01T00:19:19;98500.98;;;8.12;100.00
54600;BME280;40500;51.084;16.958;2023-04-01T00:21:50;98503.36;;;8.14;100.00
54600;BME280;40500;51.084;16.958;2023-04-01T00:24:21;98498.96;;;8.15;100.00
54600;BME280;40500;51.084;16.958;2023-04-01T00:26:51;98499.73;;;8.17;100.00
54600;BME280;40500;51.084;16.958;2023-04-01T00:29:22;98501.81;;;8.18;100.00
54600;BME280;40500;51.084;16.958;2023-04-01T00:31:53;98495.54;;;8.18;100.00
54600;BME280;40500;51.084;16.958;2023-04-01T00:34:24;98499.39;;;8.17;100.00
54600;BME280;40500;51.084;16.958;2023-04-01T00:36:54;98501.34;;;8.16;100.00
54600;BME280;40500;51.084;16.958;2023-04-01T00:39:25;98503.11;;;8.16;100.00
54600;BME280;40500;51.084;16.958;2023-04-01T00:41:55;98505.22;;;8.15;100.00
54600;BME280;40500;51.084;16.958;2023-04-01T00:44:28;98500.91;;;8.14;100.00
54600;BME280;40500;51.084;16.958;2023-04-01T00:46:58;98501.07;;;8.15;100.00
54600;BME280;40500;51.084;16.958;2023-04-01T00:49:31;98501.48;;;8.17;100.00
54600;BME280;40500;51.084;16.958;2023-04-01T00:52:04;98493.03;;;8.20;100.00
54600;BME280;40500;51.084;16.958;2023-04-01T00:54:36;98496.48;;;8.21;100.00
54600;BME280;40500;51.084;16.958;2023-04-01T00:57:15;98494.89;;;8.21;100.00
54600;BME280;40500;51.084;16.958;2023-04-01T00:59:49;98495.05;;;8.22;100.00
54600;BME280;40500;51.084;16.958;2023-04-01T01:02:23;98501.67;;;8.22;100.00
54600;BME280;40500;51.084;16.958;2023-04-01T01:04:54;98499.52;;;8.23;100.00
54600;BME280;40500;51.084;16.958;2023-04-01T01:07:29;98499.34;;;8.23;100.00
54600;BME280;40500;51.084;16.958;2023-04-01T01:10:09;98500.39;;;8.23;100.00
54600;BME280;40500;51.084;16.958;2023-04-01T01:12:40;98506.33;;;8.23;100.00
54600;BME280;40500;51.084;16.958;2023-04-01T01:15:19;98505.14;;;8.22;100.00
54600;BME280;40500;51.084;16.958;2023-04-01T01:17:57;98499.55;;;8.22;100.00
54600;BME280;40500;51.084;16.958;2023-04-01T01:20:48;98494.31;;;8.23;100.00
54600;BME280;40500;51.084;16.958;2023-04-01T01:26:43;98490.86;;;8.22;100.00
54600;BME280;40500;51.084;16.958;2023-04-01T01:32:12;98498.66;;;8.23;100.00
54600;BME280;40500;51.084;16.958;2023-04-01T01:34:51;98498.30;;;8.23;100.00
54600;BME280;40500;51.084;16.958;2023-04-01T01:37:26;98498.11;;;8.24;100.00
54600;BME280;40500;51.084;16.958;2023-04-01T01:40:02;98495.12;;;8.24;100.00
54600;BME280;40500;51.084;16.958;2023-04-01T01:42:38;98497.77;;;8.24;100.00
54600;BME280;40500;51.084;16.958;2023-04-01T01:45:10;98496.02;;;8.24;100.00
54600;BME280;40500;51.084;16.958;2023-04-01T01:47:43;98496.17;;;8.24;100.00
54600;BME280;40500;51.084;16.958;2023-04-01T01:50:15;98495.48;;;8.24;100.00
54600;BME280;40500;51.084;16.958;2023-04-01T01:52:47;98491.83;;;8.24;100.00
54600;BME280;40500;51.084;16.958;2023-04-01T01:55:29;98489.55;;;8.24;100.00
54600;BME280;40500;51.084;16.958;2023-04-01T01:58:07;98490.58;;;8.24;100.00
54600;BME280;40500;51.084;16.958;2023-04-01T02:00:43;98490.40;;;8.24;100.00
54600;BME280;40500;51.084;16.958;2023-04-01T02:03:15;98486.23;;;8.24;100.00
54600;BME280;40500;51.084;16.958;2023-04-01T02:05:47;98486.58;;;8.24;100.00
54600;BME280;40500;51.084;16.958;2023-04-01T02:08:22;98484.11;;;8.25;100.00
54600;BME280;40500;51.084;16.958;2023-04-01T02:10:55;98482.86;;;8.26;100.00
54600;BME280;40500;51.084;16.958;2023-04-01T02:13:33;98485.27;;;8.27;100.00
54600;BME280;40500;51.084;16.958;2023-04-01T02:16:08;98483.45;;;8.28;100.00
54600;BME280;40500;51.084;16.958;2023-04-01T02:18:42;98479.05;;;8.30;100.00
54600;BME280;40500;51.084;16.958;2023-04-01T02:21:14;98482.46;;;8.32;100.00
54600;BME280;40500;51.084;16.958;2023-04-01T02:23:45;98480.45;;;8.35;100.00
54600;BME280;40500;51.084;16.958;2023-04-01T02:26:17;98481.27;;;8.36;100.00
54600;BME280;40500;51.084;16.958;2023-04-01T02:28:49;98478.43;;;8.37;100.00
54600;BME280;40500;51.084;16.958;2023-04-01T02:31:21;98478.71;;;8.39;100.00
54600;BME280;40500;51.084;16.958;2023-04-01T02:33:55;98476.91;;;8.41;100.00
54600;BME280;40500;51.084;16.958;2023-04-01T02:36:26;98477.05;;;8.42;100.00
54600;BME280;40500;51.084;16.958;2023-04-01T02:38:57;98472.86;;;8.43;100.00
54600;BME280;40500;51.084;16.958;2023-04-01T02:41:33;98474.73;;;8.44;100.00
54600;BME280;40500;51.084;16.958;2023-04-01T02:44:10;98474.13;;;8.46;100.00
54600;BME280;40500;51.084;16.958;2023-04-01T02:46:41;98479.58;;;8.49;100.00
54600;BME280;40500;51.084;16.958;2023-04-01T02:49:12;98478.11;;;8.51;100.00
54600;BME280;40500;51.084;16.958;2023-04-01T02:51:42;98478.40;;;8.53;100.00
54600;BME280;40500;51.084;16.958;2023-04-01T02:54:13;98482.70;;;8.54;100.00
54600;BME280;40500;51.084;16.958;2023-04-01T02:56:45;98484.44;;;8.55;100.00
54600;BME280;40500;51.084;16.958;2023-04-01T02:59:15;98486.89;;;8.55;100.00
54600;BME280;40500;51.084;16.958;2023-04-01T03:01:46;98491.75;;;8.55;100.00
54600;BME280;40500;51.084;16.958;2023-04-01T03:04:17;98489.65;;;8.55;100.00
54600;BME280;40500;51.084;16.958;2023-04-01T03:06:47;98491.52;;;8.56;100.00
54600;BME280;40500;51.084;16.958;2023-04-01T03:09:18;98492.90;;;8.56;100.00
54600;BME280;40500;51.084;16.958;2023-04-01T03:11:48;98499.30;;;8.59;100.00
54600;BME280;40500;51.084;16.958;2023-04-01T03:14:18;98498.20;;;8.59;100.00
54600;BME280;40500;51.084;16.958;2023-04-01T03:16:49;98495.84;;;8.62;100.00
54600;BME280;40500;51.084;16.958;2023-04-01T03:19:19;98500.35;;;8.62;100.00
54600;BME280;40500;51.084;16.958;2023-04-01T03:21:50;98500.86;;;8.62;100.00
54600;BME280;40500;51.084;16.958;2023-04-01T03:24:20;98504.73;;;8.61;100.00
54600;BME280;40500;51.084;16.958;2023-04-01T03:26:51;98501.30;;;8.60;100.00
54600;BME280;40500;51.084;16.958;2023-04-01T03:29:21;98502.40;;;8.59;100.00
54600;BME280;40500;51.084;16.958;2023-04-01T03:31:52;98503.49;;;8.58;100.00
54600;BME280;40500;51.084;16.958;2023-04-01T03:34:22;98505.61;;;8.57;100.00
54600;BME280;40500;51.084;16.958;2023-04-01T03:36:53;98506.33;;;8.57;100.00
54600;BME280;40500;51.084;16.958;2023-04-01T03:39:24;98503.34;;;8.57;100.00
54600;BME280;40500;51.084;16.958;2023-04-01T03:41:54;98508.56;;;8.57;100.00
54600;BME280;40500;51.084;16.958;2023-04-01T03:44:24;98504.27;;;8.56;100.00
54600;BME280;40500;51.084;16.958;2023-04-01T03:46:55;98509.73;;;8.55;100.00
54600;BME280;40500;51.084;16.958;2023-04-01T03:49:26;98510.81;;;8.53;100.00
54600;BME280;40500;51.084;16.958;2023-04-01T03:51:56;98512.11;;;8.51;100.00
54600;BME280;40500;51.084;16.958;2023-04-01T03:54:26;98514.56;;;8.51;100.00
54600;BME280;40500;51.084;16.958;2023-04-01T03:56:57;98511.62;;;8.51;100.00
54600;BME280;40500;51.084;16.958;2023-04-01T03:59:28;98512.88;;;8.49;100.00
54600;BME280;40500;51.084;16.958;2023-04-01T04:01:58;98516.77;;;8.48;100.00
54600;BME280;40500;51.084;16.958;2023-04-01T04:04:30;98515.45;;;8.46;100.00
54600;BME280;40500;51.084;16.958;2023-04-01T04:07:01;98520.23;;;8.44;100.00
54600;BME280;40500;51.084;16.958;2023-04-01T04:09:38;98521.47;;;8.44;100.00
54600;BME280;40500;51.084;16.958;2023-04-01T04:12:08;98523.98;;;8.41;100.00
54600;BME280;40500;51.084;16.958;2023-04-01T04:14:39;98526.31;;;8.39;100.00
54600;BME280;40500;51.084;16.958;2023-04-01T04:17:11;98526.38;;;8.37;100.00
54600;BME280;40500;51.084;16.958;2023-04-01T04:19:46;98532.73;;;8.36;100.00
54600;BME280;40500;51.084;16.958;2023-04-01T04:22:16;98534.66;;;8.36;100.00
54600;BME280;40500;51.084;16.958;2023-04-01T04:24:47;98536.98;;;8.34;100.00
54600;BME280;40500;51.084;16.958;2023-04-01T04:27:18;98537.04;;;8.32;100.00
54600;BME280;40500;51.084;16.958;2023-04-01T04:30:01;98532.95;;;8.29;100.00
54600;BME280;40500;51.084;16.958;2023-04-01T04:32:32;98534.09;;;8.27;100.00
54600;BME280;40500;51.084;16.958;2023-04-01T04:35:03;98534.41;;;8.23;100.00
54600;BME280;40500;51.084;16.958;2023-04-01T04:37:33;98534.78;;;8.22;100.00
54600;BME280;40500;51.084;16.958;2023-04-01T04:40:05;98534.47;;;8.21;100.00
54600;BME280;40500;51.084;16.958;2023-04-01T04:42:35;98533.96;;;8.20;100.00
54600;BME280;40500;51.084;16.958;2023-04-01T04:45:11;98539.59;;;8.19;100.00
54600;BME280;40500;51.084;16.958;2023-04-01T04:47:46;98537.00;;;8.19;100.00
54600;BME280;40500;51.084;16.958;2023-04-01T04:50:16;98542.99;;;8.17;100.00
54600;BME280;40500;51.084;16.958;2023-04-01T04:52:47;98539.85;;;8.17;100.00
54600;BME280;40500;51.084;16.958;2023-04-01T04:55:18;98540.38;;;8.17;100.00
54600;BME280;40500;51.084;16.958;2023-04-01T04:57:52;98543.66;;;8.18;100.00
54600;BME280;40500;51.084;16.958;2023-04-01T05:00:23;98546.42;;;8.18;100.00
54600;BME280;40500;51.084;16.958;2023-04-01T05:02:57;98545.16;;;8.19;100.00
54600;BME280;40500;51.084;16.958;2023-04-01T05:05:28;98549.49;;;8.20;100.00
54600;BME280;40500;51.084;16.958;2023-04-01T05:08:00;98549.17;;;8.20;100.00
54600;BME280;40500;51.084;16.958;2023-04-01T05:10:33;98551.80;;;8.19;100.00
54600;BME280;40500;51.084;16.958;2023-04-01T05:13:03;98550.56;;;8.19;100.00
54600;BME280;40500;51.084;16.958;2023-04-01T05:15:34;98550.79;;;8.18;100.00
54600;BME280;40500;51.084;16.958;2023-04-01T05:18:05;98549.52;;;8.15;100.00
54600;BME280;40500;51.084;16.958;2023-04-01T05:20:36;98548.84;;;8.14;100.00
54600;BME280;40500;51.084;16.958;2023-04-01T05:23:06;98551.77;;;8.15;100.00
54600;BME280;40500;51.084;16.958;2023-04-01T05:25:39;98553.63;;;8.17;100.00
54600;BME280;40500;51.084;16.958;2023-04-01T05:28:10;98556.14;;;8.20;100.00
54600;BME280;40500;51.084;16.958;2023-04-01T05:30:42;98550.67;;;8.21;100.00
54600;BME280;40500;51.084;16.958;2023-04-01T05:33:28;98550.26;;;8.23;100.00
54600;BME280;40500;51.084;16.958;2023-04-01T05:36:07;98548.29;;;8.25;100.00
54600;BME280;40500;51.084;16.958;2023-04-01T05:38:37;98553.95;;;8.27;100.00
54600;BME280;40500;51.084;16.958;2023-04-01T05:41:10;98549.18;;;8.29;100.00
54600;BME280;40500;51.084;16.958;2023-04-01T05:43:44;98549.17;;;8.29;100.00
54600;BME280;40500;51.084;16.958;2023-04-01T05:46:49;98551.24;;;8.30;100.00
54600;BME280;40500;51.084;16.958;2023-04-01T05:49:24;98551.50;;;8.32;100.00
54600;BME280;40500;51.084;16.958;2023-04-01T05:51:57;98551.80;;;8.34;100.00
54600;BME280;40500;51.084;16.958;2023-04-01T05:54:28;98548.45;;;8.35;100.00
54600;BME280;40500;51.084;16.958;2023-04-01T05:56:59;98548.41;;;8.36;100.00
54600;BME280;40500;51.084;16.958;2023-04-01T05:59:29;98554.41;;;8.39;100.00
54600;BME280;40500;51.084;16.958;2023-04-01T06:02:01;98555.04;;;8.40;100.00
54600;BME280;40500;51.084;16.958;2023-04-01T06:04:42;98556.95;;;8.42;100.00
54600;BME280;40500;51.084;16.958;2023-04-01T06:07:14;98557.45;;;8.42;100.00
54600;BME280;40500;51.084;16.958;2023-04-01T06:09:45;98562.44;;;8.44;100.00
54600;BME280;40500;51.084;16.958;2023-04-01T06:12:45;98558.23;;;8.45;100.00
54600;BME280;40500;51.084;16.958;2023-04-01T06:15:25;98564.19;;;8.49;100.00
54600;BME280;40500;51.084;16.958;2023-04-01T06:18:11;98566.67;;;8.52;100.00
54600;BME280;40500;51.084;16.958;2023-04-01T06:20:50;98569.33;;;8.56;100.00
54600;BME280;40500;51.084;16.958;2023-04-01T06:23:35;98574.10;;;8.59;100.00
54600;BME280;40500;51.084;16.958;2023-04-01T06:26:18;98575.80;;;8.65;100.00
54600;BME280;40500;51.084;16.958;2023-04-01T06:29:02;98574.79;;;8.69;100.00
54600;BME280;40500;51.084;16.958;2023-04-01T06:31:50;98576.94;;;8.72;100.00
54600;BME280;40500;51.084;16.958;2023-04-01T06:34:38;98575.84;;;8.78;100.00
54600;BME280;40500;51.084;16.958;2023-04-01T06:37:23;98575.95;;;8.84;100.00
54600;BME280;40500;51.084;16.958;2023-04-01T06:40:16;98578.55;;;8.89;100.00
54600;BME280;40500;51.084;16.958;2023-04-01T06:43:01;98582.95;;;8.94;100.00
54600;BME280;40500;51.084;16.958;2023-04-01T06:46:00;98580.83;;;8.94;100.00
54600;BME280;40500;51.084;16.958;2023-04-01T06:49:05;98583.94;;;8.90;100.00
54600;BME280;40500;51.084;16.958;2023-04-01T06:52:15;98584.05;;;8.91;100.00
54600;BME280;40500;51.084;16.958;2023-04-01T06:55:21;98588.27;;;8.95;100.00
54600;BME280;40500;51.084;16.958;2023-04-01T06:58:20;98588.30;;;8.99;100.00
54600;BME280;40500;51.084;16.958;2023-04-01T07:00:53;98587.64;;;9.02;100.00
54600;BME280;40500;51.084;16.958;2023-04-01T07:03:32;98592.27;;;9.05;100.00
54600;BME280;40500;51.084;16.958;2023-04-01T07:06:08;98595.31;;;9.07;100.00
54600;BME280;40500;51.084;16.958;2023-04-01T07:08:47;98592.96;;;9.09;100.00
54600;BME280;40500;51.084;16.958;2023-04-01T07:11:24;98594.91;;;9.14;100.00
54600;BME280;40500;51.084;16.958;2023-04-01T07:14:31;98597.66;;;9.19;100.00
54600;BME280;40500;51.084;16.958;2023-04-01T07:17:08;98602.41;;;9.22;100.00
54600;BME280;40500;51.084;16.958;2023-04-01T07:19:44;98599.17;;;9.25;100.00
54600;BME280;40500;51.084;16.958;2023-04-01T07:22:16;98596.52;;;9.26;100.00
54600;BME280;40500;51.084;16.958;2023-04-01T07:25:18;98608.10;;;9.29;100.00
54600;BME280;40500;51.084;16.958;2023-04-01T07:28:02;98606.41;;;9.32;100.00
54600;BME280;40500;51.084;16.958;2023-04-01T07:30:44;98606.83;;;9.35;100.00
54600;BME280;40500;51.084;16.958;2023-04-01T07:33:21;98606.06;;;9.40;100.00
54600;BME280;40500;51.084;16.958;2023-04-01T07:36:01;98605.84;;;9.46;100.00
54600;BME280;40500;51.084;16.958;2023-04-01T07:38:41;98608.65;;;9.50;100.00
54600;BME280;40500;51.084;16.958;2023-04-01T07:41:21;98608.57;;;9.52;100.00
54600;BME280;40500;51.084;16.958;2023-04-01T07:44:06;98613.33;;;9.56;100.00
54600;BME280;40500;51.084;16.958;2023-04-01T07:46:52;98612.75;;;9.57;100.00
54600;BME280;40500;51.084;16.958;2023-04-01T07:49:30;98612.59;;;9.61;100.00
54600;BME280;40500;51.084;16.958;2023-04-01T07:52:08;98613.22;;;9.67;100.00
54600;BME280;40500;51.084;16.958;2023-04-01T07:54:48;98615.17;;;9.70;100.00
54600;BME280;40500;51.084;16.958;2023-04-01T07:57:19;98616.50;;;9.72;100.00
54600;BME280;40500;51.084;16.958;2023-04-01T08:00:01;98619.14;;;9.76;100.00
54600;BME280;40500;51.084;16.958;2023-04-01T08:02:54;98623.14;;;9.80;100.00
54600;BME280;40500;51.084;16.958;2023-04-01T08:05:32;98621.92;;;9.89;100.00
54600;BME280;40500;51.084;16.958;2023-04-01T08:08:12;98627.95;;;9.95;100.00
54600;BME280;40500;51.084;16.958;2023-04-01T08:11:37;98632.10;;;10.04;100.00
54600;BME280;40500;51.084;16.958;2023-04-01T08:14:36;98634.59;;;10.08;100.00
54600;BME280;40500;51.084;16.958;2023-04-01T08:17:54;98637.85;;;10.05;100.00
54600;BME280;40500;51.084;16.958;2023-04-01T08:20:30;98637.45;;;10.06;100.00
54600;BME280;40500;51.084;16.958;2023-04-01T08:23:11;98637.54;;;10.13;100.00
54600;BME280;40500;51.084;16.958;2023-04-01T08:25:48;98638.45;;;10.16;100.00
54600;BME280;40500;51.084;16.958;2023-04-01T08:28:25;98639.63;;;10.21;100.00
54600;BME280;40500;51.084;16.958;2023-04-01T08:31:03;98641.37;;;10.25;100.00
54600;BME280;40500;51.084;16.958;2023-04-01T08:33:35;98644.77;;;10.27;100.00
54600;BME280;40500;51.084;16.958;2023-04-01T08:36:12;98644.77;;;10.27;100.00
54600;BME280;40500;51.084;16.958;2023-04-01T08:38:53;98640.34;;;10.29;100.00
54600;BME280;40500;51.084;16.958;2023-04-01T08:41:55;98647.34;;;10.34;100.00
54600;BME280;40500;51.084;16.958;2023-04-01T08:45:17;98643.15;;;10.42;100.00
54600;BME280;40500;51.084;16.958;2023-04-01T08:48:10;98646.89;;;10.52;100.00
54600;BME280;40500;51.084;16.958;2023-04-01T08:53:53;98649.93;;;10.71;100.00
54600;BME280;40500;51.084;16.958;2023-04-01T08:56:29;98647.00;;;10.77;100.00
54600;BME280;40500;51.084;16.958;2023-04-01T08:59:22;98645.17;;;10.79;100.00
54600;BME280;40500;51.084;16.958;2023-04-01T09:02:26;98646.69;;;10.84;100.00
54600;BME280;40500;51.084;16.958;2023-04-01T09:05:26;98649.20;;;11.02;100.00
54600;BME280;40500;51.084;16.958;2023-04-01T09:08:13;98650.74;;;11.06;100.00
54600;BME280;40500;51.084;16.958;2023-04-01T09:10:58;98648.96;;;11.12;100.00
54600;BME280;40500;51.084;16.958;2023-04-01T09:14:29;98652.52;;;11.10;100.00
54600;BME280;40500;51.084;16.958;2023-04-01T09:17:40;98651.55;;;11.12;100.00
54600;BME280;40500;51.084;16.958;2023-04-01T09:23:23;98660.00;;;11.04;100.00
54600;BME280;40500;51.084;16.958;2023-04-01T09:26:10;98667.45;;;11.10;100.00
54600;BME280;40500;51.084;16.958;2023-04-01T09:28:53;98659.61;;;11.16;100.00
54600;BME280;40500;51.084;16.958;2023-04-01T09:31:40;98659.63;;;11.19;100.00
54600;BME280;40500;51.084;16.958;2023-04-01T09:34:55;98659.88;;;11.29;100.00
54600;BME280;40500;51.084;16.958;2023-04-01T09:37:41;98661.49;;;11.39;100.00
54600;BME280;40500;51.084;16.958;2023-04-01T09:40:33;98662.55;;;11.51;100.00
54600;BME280;40500;51.084;16.958;2023-04-01T09:43:29;98662.38;;;11.65;100.00
54600;BME280;40500;51.084;16.958;2023-04-01T09:46:28;98665.59;;;11.53;100.00
54600;BME280;40500;51.084;16.958;2023-04-01T09:49:29;98662.44;;;11.57;100.00
54600;BME280;40500;51.084;16.958;2023-04-01T09:52:20;98661.09;;;11.48;100.00
54600;BME280;40500;51.084;16.958;2023-04-01T09:55:17;98668.37;;;11.39;100.00
54600;BME280;40500;51.084;16.958;2023-04-01T10:01:37;98671.85;;;11.79;100.00
54600;BME280;40500;51.084;16.958;2023-04-01T10:04:37;98669.45;;;11.94;100.00
54600;BME280;40500;51.084;16.958;2023-04-01T10:07:45;98668.30;;;12.13;100.00
54600;BME280;40500;51.084;16.958;2023-04-01T10:13:42;98664.40;;;12.49;100.00
54600;BME280;40500;51.084;16.958;2023-04-01T10:19:57;98666.56;;;12.64;100.00
54600;BME280;40500;51.084;16.958;2023-04-01T10:26:14;98670.73;;;12.82;100.00
54600;BME280;40500;51.084;16.958;2023-04-01T10:32:23;98660.87;;;13.02;100.00
54600;BME280;40500;51.084;16.958;2023-04-01T10:35:21;98658.55;;;13.10;100.00
54600;BME280;40500;51.084;16.958;2023-04-01T10:38:22;98657.27;;;13.17;100.00
54600;BME280;40500;51.084;16.958;2023-04-01T10:41:23;98664.86;;;13.06;100.00
54600;BME280;40500;51.084;16.958;2023-04-01T10:44:45;98669.50;;;12.92;100.00
54600;BME280;40500;51.084;16.958;2023-04-01T10:50:42;98665.88;;;12.60;100.00
54600;BME280;40500;51.084;16.958;2023-04-01T10:53:35;98673.84;;;12.46;100.00
54600;BME280;40500;51.084;16.958;2023-04-01T10:56:43;98682.29;;;12.28;100.00
54600;BME280;40500;51.084;16.958;2023-04-01T10:59:53;98682.05;;;12.01;100.00
54600;BME280;40500;51.084;16.958;2023-04-01T11:06:31;98684.36;;;11.53;100.00
54600;BME280;40500;51.084;16.958;2023-04-01T11:12:40;98682.92;;;11.61;100.00
54600;BME280;40500;51.084;16.958;2023-04-01T11:15:36;98687.49;;;11.68;100.00
54600;BME280;40500;51.084;16.958;2023-04-01T11:21:55;98689.28;;;11.48;100.00
54600;BME280;40500;51.084;16.958;2023-04-01T11:25:16;98692.45;;;11.48;100.00
54600;BME280;40500;51.084;16.958;2023-04-01T11:28:25;98692.06;;;11.56;100.00
54600;BME280;40500;51.084;16.958;2023-04-01T11:31:19;98699.11;;;11.59;100.00
54600;BME280;40500;51.084;16.958;2023-04-01T11:33:57;98698.49;;;11.69;100.00
54600;BME280;40500;51.084;16.958;2023-04-01T11:36:40;98702.38;;;11.72;100.00
54600;BME280;40500;51.084;16.958;2023-04-01T11:39:24;98704.96;;;11.77;100.00
54600;BME280;40500;51.084;16.958;2023-04-01T11:42:24;98708.42;;;11.85;100.00
54600;BME280;40500;51.084;16.958;2023-04-01T11:45:36;98704.36;;;11.94;100.00
54600;BME280;40500;51.084;16.958;2023-04-01T11:48:18;98701.89;;;11.90;100.00
54600;BME280;40500;51.084;16.958;2023-04-01T11:51:09;98704.00;;;11.82;100.00
54600;BME280;40500;51.084;16.958;2023-04-01T11:53:49;98707.55;;;11.70;100.00
54600;BME280;40500;51.084;16.958;2023-04-01T11:56:44;98709.04;;;11.54;100.00
54600;BME280;40500;51.084;16.958;2023-04-01T12:02:41;98726.27;;;11.02;100.00
54600;BME280;40500;51.084;16.958;2023-04-01T12:05:26;98724.94;;;10.81;100.00
54600;BME280;40500;51.084;16.958;2023-04-01T12:08:14;98740.02;;;10.64;100.00
54600;BME280;40500;51.084;16.958;2023-04-01T12:10:52;98738.55;;;10.61;100.00
54600;BME280;40500;51.084;16.958;2023-04-01T12:13:37;98744.82;;;10.75;100.00
54600;BME280;40500;51.084;16.958;2023-04-01T12:16:30;98739.48;;;11.08;100.00
54600;BME280;40500;51.084;16.958;2023-04-01T12:19:16;98740.48;;;11.60;100.00
54600;BME280;40500;51.084;16.958;2023-04-01T12:21:58;98735.42;;;12.04;100.00
54600;BME280;40500;51.084;16.958;2023-04-01T12:24:53;98734.42;;;12.10;100.00
54600;BME280;40500;51.084;16.958;2023-04-01T12:27:43;98735.59;;;11.89;100.00
54600;BME280;40500;51.084;16.958;2023-04-01T12:30:32;98734.14;;;11.83;100.00
54600;BME280;40500;51.084;16.958;2023-04-01T12:36:21;98725.10;;;14.38;100.00
54600;BME280;40500;51.084;16.958;2023-04-01T12:39:14;98726.42;;;14.30;100.00
54600;BME280;40500;51.084;16.958;2023-04-01T12:41:54;98730.77;;;13.75;100.00
54600;BME280;40500;51.084;16.958;2023-04-01T12:44:48;98737.00;;;13.31;100.00
54600;BME280;40500;51.084;16.958;2023-04-01T12:47:50;98739.67;;;12.97;100.00
54600;BME280;40500;51.084;16.958;2023-04-01T12:50:39;98741.67;;;12.76;100.00
54600;BME280;40500;51.084;16.958;2023-04-01T12:53:25;98741.03;;;12.50;100.00
54600;BME280;40500;51.084;16.958;2023-04-01T12:56:09;98741.16;;;12.23;100.00
54600;BME280;40500;51.084;16.958;2023-04-01T12:58:56;98743.80;;;11.94;100.00
54600;BME280;40500;51.084;16.958;2023-04-01T13:04:40;98757.67;;;11.56;100.00
54600;BME280;40500;51.084;16.958;2023-04-01T13:07:41;98761.35;;;11.44;100.00
54600;BME280;40500;51.084;16.958;2023-04-01T13:10:25;98764.19;;;11.36;100.00
54600;BME280;40500;51.084;16.958;2023-04-01T13:13:34;98768.89;;;11.29;100.00
54600;BME280;40500;51.084;16.958;2023-04-01T13:16:13;98771.61;;;11.19;100.00
54600;BME280;40500;51.084;16.958;2023-04-01T13:18:54;98772.02;;;11.14;100.00
54600;BME280;40500;51.084;16.958;2023-04-01T13:21:38;98778.52;;;11.09;100.00
54600;BME280;40500;51.084;16.958;2023-04-01T13:24:24;98787.95;;;11.05;100.00
54600;BME280;40500;51.084;16.958;2023-04-01T13:27:01;98793.89;;;11.01;100.00
54600;BME280;40500;51.084;16.958;2023-04-01T13:29:38;98797.60;;;11.01;100.00
54600;BME280;40500;51.084;16.958;2023-04-01T13:32:22;98801.17;;;10.92;100.00
54600;BME280;40500;51.084;16.958;2023-04-01T13:35:23;98797.66;;;10.75;100.00
54600;BME280;40500;51.084;16.958;2023-04-01T13:38:14;98807.15;;;10.66;100.00
54600;BME280;40500;51.084;16.958;2023-04-01T13:40:53;98807.98;;;10.63;100.00
54600;BME280;40500;51.084;16.958;2023-04-01T13:43:36;98807.54;;;10.52;100.00
54600;BME280;40500;51.084;16.958;2023-04-01T13:46:26;98803.31;;;10.45;100.00
54600;BME280;40500;51.084;16.958;2023-04-01T13:49:23;98809.77;;;10.37;100.00
54600;BME280;40500;51.084;16.958;2023-04-01T13:52:05;98806.80;;;10.32;100.00
54600;BME280;40500;51.084;16.958;2023-04-01T13:57:48;98808.89;;;10.14;100.00
54600;BME280;40500;51.084;16.958;2023-04-01T14:00:36;98812.17;;;10.06;100.00
54600;BME280;40500;51.084;16.958;2023-04-01T14:03:30;98817.34;;;9.99;100.00
54600;BME280;40500;51.084;16.958;2023-04-01T14:06:31;98814.27;;;9.93;100.00
54600;BME280;40500;51.084;16.958;2023-04-01T14:09:43;98813.45;;;9.86;100.00
54600;BME280;40500;51.084;16.958;2023-04-01T14:12:27;98815.99;;;9.79;100.00
54600;BME280;40500;51.084;16.958;2023-04-01T14:15:14;98817.30;;;9.77;100.00
54600;BME280;40500;51.084;16.958;2023-04-01T14:18:02;98821.73;;;9.76;100.00
54600;BME280;40500;51.084;16.958;2023-04-01T14:20:41;98825.61;;;9.75;100.00
54600;BME280;40500;51.084;16.958;2023-04-01T14:23:30;98829.85;;;9.74;100.00
54600;BME280;40500;51.084;16.958;2023-04-01T14:26:14;98831.42;;;9.69;100.00
54600;BME280;40500;51.084;16.958;2023-04-01T14:28:58;98823.73;;;9.64;100.00
54600;BME280;40500;51.084;16.958;2023-04-01T14:31:47;98822.30;;;9.65;100.00
54600;BME280;40500;51.084;16.958;2023-04-01T14:34:29;98825.69;;;9.68;100.00
54600;BME280;40500;51.084;16.958;2023-04-01T14:37:13;98831.61;;;9.69;100.00
54600;BME280;40500;51.084;16.958;2023-04-01T14:40:16;98830.00;;;9.69;100.00
54600;BME280;40500;51.084;16.958;2023-04-01T14:46:18;98827.94;;;9.68;100.00
54600;BME280;40500;51.084;16.958;2023-04-01T14:48:57;98825.73;;;9.71;100.00
54600;BME280;40500;51.084;16.958;2023-04-01T14:51:33;98830.78;;;9.77;100.00
54600;BME280;40500;51.084;16.958;2023-04-01T14:54:12;98828.91;;;9.84;100.00
54600;BME280;40500;51.084;16.958;2023-04-01T14:56:49;98821.52;;;9.86;100.00
54600;BME280;40500;51.084;16.958;2023-04-01T14:59:29;98829.12;;;9.88;100.00
54600;BME280;40500;51.084;16.958;2023-04-01T15:02:03;98831.79;;;9.91;100.00